createdAt,value
2018-05-10T01:11:32.964Z,5.37
2018-05-10T01:14:00.523Z,5.40
2018-05-10T01:16:28.063Z,5.90
2018-05-10T01:18:55.646Z,5.40
2018-05-10T01:21:23.210Z,6.70
2018-05-10T01:23:50.748Z,6.40
2018-05-10T01:26:18.333Z,5.70
2018-05-10T01:28:45.905Z,5.13
2018-05-10T01:31:13.481Z,6.43
2018-05-10T01:33:41.049Z,6.37
2018-05-10T01:36:14.536Z,5.77
2018-05-10T01:38:42.100Z,5.40
2018-05-10T01:41:09.669Z,6.67
2018-05-10T01:43:38.878Z,5.90
2018-05-10T01:46:08.116Z,6.40
2018-05-10T01:48:37.306Z,5.80
2018-05-10T01:51:07.322Z,6.30
2018-05-10T01:53:36.558Z,5.97
2018-05-10T01:56:05.788Z,5.53
2018-05-10T01:58:35.017Z,5.77
2018-05-10T02:01:04.228Z,5.97
2018-05-10T02:03:33.436Z,5.70
2018-05-10T02:06:02.682Z,5.60
2018-05-10T02:08:31.878Z,6.40
2018-05-10T02:11:01.106Z,5.67
2018-05-10T02:13:30.311Z,6.10
2018-05-10T02:15:59.544Z,6.10
2018-05-10T02:18:28.742Z,6.40
2018-05-10T02:20:57.970Z,6.13
2018-05-10T02:23:27.172Z,5.23
2018-05-10T02:25:56.397Z,5.93
2018-05-10T02:28:25.589Z,6.90
2018-05-10T02:30:54.790Z,5.30
2018-05-10T02:33:24.070Z,5.63
2018-05-10T02:35:53.275Z,5.87
2018-05-10T02:38:22.461Z,5.23
2018-05-10T02:40:51.681Z,6.03
2018-05-10T02:43:20.893Z,5.67
2018-05-10T02:45:50.146Z,6.20
2018-05-10T02:48:19.364Z,6.30
2018-05-10T02:50:48.577Z,5.93
2018-05-10T02:53:17.765Z,5.57
2018-05-10T02:55:46.996Z,6.03
2018-05-10T02:58:16.178Z,5.90
2018-05-10T03:00:45.409Z,6.60
2018-05-10T03:03:14.593Z,5.73
2018-05-10T03:05:43.811Z,6.07
2018-05-10T03:08:13.008Z,6.60
2018-05-10T03:10:42.223Z,6.13
2018-05-10T03:13:11.420Z,6.03
2018-05-10T03:15:40.645Z,6.07
2018-05-10T03:18:09.854Z,5.90
2018-05-10T03:20:39.064Z,6.53
2018-05-10T03:23:08.248Z,6.50
2018-05-10T03:25:37.470Z,6.00
2018-05-10T03:28:06.655Z,6.20
2018-05-10T03:30:35.910Z,5.77
2018-05-10T03:33:05.128Z,5.97
2018-05-10T03:35:34.341Z,6.23
2018-05-10T03:38:03.539Z,6.00
2018-05-10T03:40:32.823Z,5.67
2018-05-10T03:43:01.986Z,5.80
2018-05-10T03:45:31.180Z,5.50
2018-05-10T03:48:00.417Z,6.13
2018-05-10T03:50:29.632Z,5.80
2018-05-10T03:52:58.830Z,5.90
2018-05-10T03:55:28.028Z,6.70
2018-05-10T03:57:57.230Z,5.60
2018-05-10T04:00:26.405Z,5.60
2018-05-10T04:03:11.420Z,6.20
2018-05-10T04:05:46.407Z,5.80
2018-05-10T04:08:21.402Z,5.10
2018-05-10T04:10:56.549Z,5.17
2018-05-10T04:13:25.756Z,5.53
2018-05-10T04:15:54.950Z,5.27
2018-05-10T04:18:24.178Z,5.00
2018-05-10T04:20:53.825Z,5.17
2018-05-10T04:23:23.043Z,5.53
2018-05-10T04:25:52.240Z,6.97
2018-05-10T04:28:21.458Z,6.90
2018-05-10T04:30:50.655Z,6.27
2018-05-10T04:33:19.864Z,5.93
2018-05-10T04:35:49.097Z,5.90
2018-05-10T04:38:18.313Z,6.13
2018-05-10T04:40:47.513Z,5.73
2018-05-10T04:43:16.733Z,6.00
2018-05-10T04:45:45.920Z,6.10
2018-05-10T04:48:15.160Z,5.77
2018-05-10T04:50:44.354Z,6.63
2018-05-10T04:53:13.656Z,6.13
2018-05-10T04:55:42.850Z,6.40
2018-05-10T04:58:12.077Z,5.90
2018-05-10T05:00:41.263Z,5.90
2018-05-10T05:03:10.471Z,5.80
2018-05-10T05:05:39.687Z,5.93
2018-05-10T05:08:08.894Z,5.73
2018-05-10T05:10:38.077Z,6.20
2018-05-10T05:13:07.289Z,5.63
2018-05-10T05:15:36.536Z,5.57
2018-05-10T05:18:05.750Z,5.60
2018-05-10T05:20:34.943Z,5.83
2018-05-10T05:23:04.158Z,6.10
2018-05-10T05:25:33.351Z,6.27
2018-05-10T05:28:02.592Z,5.97
2018-05-10T05:30:31.792Z,5.70
2018-05-10T05:33:01.028Z,5.70
2018-05-10T05:35:30.301Z,5.60
2018-05-10T05:37:59.483Z,5.20
2018-05-10T05:40:28.682Z,5.93
2018-05-10T05:42:57.886Z,5.53
2018-05-10T05:45:27.083Z,6.13
2018-05-10T05:47:56.324Z,5.90
2018-05-10T05:50:25.509Z,6.10
2018-05-10T05:52:54.735Z,5.50
2018-05-10T05:55:23.950Z,6.00
2018-05-10T05:57:53.155Z,4.67
2018-05-10T06:00:20.712Z,5.30
2018-05-10T06:02:48.266Z,5.33
2018-05-10T06:05:15.828Z,4.83
2018-05-10T06:07:43.383Z,5.23
2018-05-10T06:10:10.963Z,5.17
2018-05-10T06:12:39.265Z,5.23
2018-05-10T06:15:06.861Z,4.63
2018-05-10T06:17:34.406Z,5.50
2018-05-10T06:20:01.988Z,5.67
2018-05-10T06:22:29.550Z,5.67
2018-05-10T06:24:57.194Z,5.70
2018-05-10T06:27:24.688Z,4.93
2018-05-10T06:29:52.251Z,5.53
2018-05-10T06:32:19.793Z,6.10
2018-05-10T06:34:47.969Z,5.73
2018-05-10T06:37:15.525Z,5.90
2018-05-10T06:39:43.106Z,5.30
2018-05-10T06:42:11.428Z,5.80
2018-05-10T06:44:38.981Z,6.00
2018-05-10T06:47:06.537Z,6.17
2018-05-10T06:49:34.094Z,6.70
2018-05-10T06:52:01.636Z,6.53
2018-05-10T06:54:29.982Z,5.40
2018-05-10T06:56:57.516Z,5.60
2018-05-10T06:59:25.071Z,6.53
2018-05-10T07:01:53.367Z,5.97
2018-05-10T07:04:20.935Z,6.70
2018-05-10T07:06:48.464Z,7.30
2018-05-10T07:09:16.798Z,6.30
2018-05-10T07:11:44.346Z,6.53
2018-05-10T07:14:12.007Z,7.50
2018-05-10T07:16:39.541Z,6.67
2018-05-10T07:19:07.090Z,7.10
2018-05-10T07:21:35.403Z,6.93
2018-05-10T07:24:02.938Z,6.73
2018-05-10T07:26:30.483Z,6.13
2018-05-10T07:28:58.911Z,6.50
2018-05-10T07:31:26.463Z,6.23
2018-05-10T07:33:54.015Z,6.30
2018-05-10T07:36:21.594Z,6.30
2018-05-10T07:38:49.132Z,6.70
2018-05-10T07:41:16.757Z,6.27
2018-05-10T07:43:45.070Z,6.90
2018-05-10T07:46:12.650Z,7.00
2018-05-10T07:48:40.946Z,6.33
2018-05-10T07:51:08.510Z,6.70
2018-05-10T07:53:36.063Z,6.17
2018-05-10T07:56:03.623Z,6.50
2018-05-10T07:58:31.180Z,6.87
2018-05-10T08:00:58.914Z,5.53
2018-05-10T08:03:26.563Z,6.87
2018-05-10T08:05:54.114Z,6.93
2018-05-10T08:08:21.649Z,5.57
2018-05-10T08:10:50.148Z,5.67
2018-05-10T08:13:17.722Z,5.50
2018-05-10T08:15:45.296Z,6.77
2018-05-10T08:18:12.871Z,6.20
2018-05-10T08:20:40.440Z,6.20
2018-05-10T08:23:07.999Z,6.33
2018-05-10T08:25:35.569Z,7.00
2018-05-10T08:28:03.130Z,6.57
2018-05-10T08:30:31.476Z,6.50
2018-05-10T08:32:59.066Z,6.63
2018-05-10T08:35:26.640Z,6.63
2018-05-10T08:37:54.961Z,6.70
2018-05-10T08:40:22.571Z,6.13
2018-05-10T08:42:50.888Z,7.00
2018-05-10T08:45:18.462Z,6.17
2018-05-10T08:48:22.713Z,6.77
2018-05-10T08:50:53.975Z,6.90
2018-05-10T08:53:21.584Z,6.20
2018-05-10T08:55:49.163Z,7.00
2018-05-10T08:58:16.706Z,6.63
2018-05-10T09:00:44.273Z,7.47
2018-05-10T09:03:11.871Z,8.30
2018-05-10T09:05:39.435Z,8.53
2018-05-10T09:08:06.993Z,8.80
2018-05-10T09:10:35.421Z,9.00
2018-05-10T09:13:02.981Z,7.77
2018-05-10T09:15:30.550Z,8.07
2018-05-10T09:17:58.097Z,8.63
2018-05-10T09:20:25.665Z,8.87
2018-05-10T09:22:53.224Z,8.17
2018-05-10T09:25:20.768Z,5.83
2018-05-10T09:27:48.329Z,6.10
2018-05-10T09:30:15.858Z,5.00
2018-05-10T09:32:44.191Z,5.60
2018-05-10T09:35:12.892Z,5.37
2018-05-10T09:37:40.434Z,5.20
2018-05-10T09:40:07.976Z,5.20
2018-05-10T09:42:35.517Z,5.40
2018-05-10T09:45:03.060Z,5.30
2018-05-10T09:47:30.614Z,4.70
2018-05-10T09:49:58.917Z,4.90
2018-05-10T09:52:28.133Z,5.10
2018-05-10T09:54:57.635Z,4.77
2018-05-10T09:57:25.218Z,4.93
2018-05-10T09:59:52.770Z,5.00
2018-05-10T10:02:20.330Z,4.60
2018-05-10T10:04:47.863Z,3.57
2018-05-10T10:07:15.417Z,3.70
2018-05-10T10:09:42.951Z,3.10
2018-05-10T10:12:11.284Z,2.70
2018-05-10T10:14:39.970Z,2.90
2018-05-10T10:17:07.530Z,2.90
2018-05-10T10:19:36.229Z,3.23
2018-05-10T10:22:05.438Z,3.37
2018-05-10T10:24:32.969Z,3.00
2018-05-10T10:27:02.172Z,3.20
2018-05-10T10:29:31.365Z,2.63
2018-05-10T10:32:00.569Z,2.60
2018-05-10T10:34:29.847Z,2.47
2018-05-10T10:36:58.984Z,3.00
2018-05-10T10:39:28.162Z,2.80
2018-05-10T10:41:57.369Z,2.83
2018-05-10T10:44:24.961Z,2.73
2018-05-10T10:46:52.488Z,2.63
2018-05-10T10:49:21.681Z,3.23
2018-05-10T10:51:50.895Z,3.10
2018-05-10T10:54:20.088Z,2.67
2018-05-10T10:56:47.634Z,3.23
2018-05-10T10:59:15.188Z,2.73
2018-05-10T11:01:42.837Z,2.70
2018-05-10T11:04:11.455Z,2.63
2018-05-10T11:06:39.014Z,2.93
2018-05-10T11:09:08.276Z,3.00
2018-05-10T11:11:37.410Z,2.40
2018-05-10T11:14:06.599Z,2.60
2018-05-10T11:16:35.798Z,2.63
2018-05-10T11:19:05.002Z,2.10
2018-05-10T11:21:34.185Z,2.33
2018-05-10T11:24:03.385Z,2.43
2018-05-10T11:26:31.685Z,2.37
2018-05-10T11:28:59.240Z,2.50
2018-05-10T11:31:26.770Z,2.43
2018-05-10T11:33:55.101Z,2.20
2018-05-10T11:36:22.638Z,2.43
2018-05-10T11:38:50.209Z,2.47
2018-05-10T11:41:17.745Z,2.10
2018-05-10T11:43:46.063Z,2.20
2018-05-10T11:46:13.600Z,1.67
2018-05-10T11:48:41.949Z,1.90
2018-05-10T11:51:10.274Z,1.80
2018-05-10T11:53:37.838Z,1.80
2018-05-10T11:56:05.375Z,1.90
2018-05-10T11:58:32.933Z,2.17
2018-05-10T12:01:00.464Z,2.17
2018-05-10T12:03:28.786Z,2.17
2018-05-10T12:05:56.329Z,2.40
2018-05-10T12:08:23.914Z,2.17
2018-05-10T12:10:51.465Z,1.93
2018-05-10T12:13:19.020Z,2.27
2018-05-10T12:15:46.633Z,2.10
2018-05-10T12:18:14.962Z,1.90
2018-05-10T12:20:42.495Z,2.03
2018-05-10T12:23:10.040Z,2.33
2018-05-10T12:25:38.460Z,2.60
2018-05-10T12:28:06.004Z,2.43
2018-05-10T12:30:33.598Z,2.50
2018-05-10T12:33:01.134Z,2.30
2018-05-10T12:35:28.665Z,2.47
2018-05-10T12:37:56.236Z,2.77
2018-05-10T12:40:23.780Z,3.13
2018-05-10T12:42:51.356Z,2.70
2018-05-10T12:45:18.885Z,2.57
2018-05-10T12:47:47.191Z,2.40
2018-05-10T12:50:14.768Z,2.20
2018-05-10T12:52:42.322Z,2.20
2018-05-10T12:55:09.881Z,2.00
2018-05-10T12:57:37.406Z,1.90
2018-05-10T13:00:05.722Z,2.00
2018-05-10T13:02:33.280Z,2.23
2018-05-10T13:05:00.848Z,2.10
2018-05-10T13:07:28.380Z,2.17
2018-05-10T13:09:55.957Z,2.20
2018-05-10T13:12:24.249Z,2.07
2018-05-10T13:14:51.897Z,2.30
2018-05-10T13:17:19.434Z,2.33
2018-05-10T13:19:47.101Z,2.20
2018-05-10T13:22:14.579Z,1.93
2018-05-10T13:24:42.912Z,2.60
2018-05-10T13:27:10.504Z,2.47
2018-05-10T13:29:38.065Z,3.53
2018-05-10T13:32:06.368Z,4.20
2018-05-10T13:34:33.935Z,3.40
2018-05-10T13:37:01.459Z,3.83
2018-05-10T13:39:29.034Z,3.43
2018-05-10T13:41:57.349Z,4.17
2018-05-10T13:44:24.917Z,3.20
2018-05-10T13:46:52.454Z,3.57
2018-05-10T13:49:20.014Z,2.90
2018-05-10T13:51:47.552Z,3.77
2018-05-10T13:54:15.875Z,2.90
2018-05-10T13:56:43.420Z,2.50
2018-05-10T13:59:10.998Z,2.83
2018-05-10T14:01:38.539Z,2.60
2018-05-10T14:04:06.091Z,2.20
2018-05-10T14:06:33.636Z,1.93
2018-05-10T14:09:01.976Z,2.30
2018-05-10T14:11:30.649Z,2.10
2018-05-10T14:13:58.209Z,1.90
2018-05-10T14:16:25.749Z,1.77
2018-05-10T14:18:53.315Z,1.70
2018-05-10T14:21:20.865Z,1.77
2018-05-10T14:23:48.397Z,1.20
2018-05-10T14:26:16.730Z,1.20
2018-05-10T14:28:45.947Z,1.30
2018-05-10T14:31:15.122Z,1.80
2018-05-10T14:33:44.310Z,1.73
2018-05-10T14:36:13.511Z,2.13
2018-05-10T14:38:42.679Z,3.00
2018-05-10T14:41:11.898Z,3.63
2018-05-10T14:43:41.098Z,4.50
2018-05-10T14:46:10.298Z,5.10
2018-05-10T14:48:39.492Z,5.60
2018-05-10T14:51:08.724Z,5.53
2018-05-10T14:53:37.897Z,6.47
2018-05-10T14:56:07.110Z,6.20
2018-05-10T14:58:36.296Z,6.30
2018-05-10T15:01:05.513Z,4.97
2018-05-10T15:03:34.706Z,4.73
2018-05-10T15:06:03.919Z,5.20
2018-05-10T15:08:33.108Z,5.17
2018-05-10T15:11:02.473Z,5.23
2018-05-10T15:13:31.666Z,6.20
2018-05-10T15:16:00.878Z,5.83
2018-05-10T15:18:30.052Z,5.30
2018-05-10T15:20:59.298Z,5.63
2018-05-10T15:23:28.487Z,5.30
2018-05-10T15:25:57.694Z,5.90
2018-05-10T15:28:26.913Z,5.03
2018-05-10T15:30:56.123Z,5.17
2018-05-10T15:33:25.307Z,6.93
2018-05-10T15:35:54.508Z,5.50
2018-05-10T15:38:23.682Z,4.90
2018-05-10T15:40:52.906Z,6.00
2018-05-10T15:43:22.104Z,5.73
2018-05-10T15:45:51.317Z,5.43
2018-05-10T15:48:20.521Z,6.80
2018-05-10T15:50:49.736Z,5.57
2018-05-10T15:53:18.944Z,4.90
2018-05-10T15:55:48.154Z,5.10
2018-05-10T15:58:17.347Z,4.53
2018-05-10T16:00:46.545Z,4.13
2018-05-10T16:03:15.738Z,4.10
2018-05-10T16:05:44.940Z,3.90
2018-05-10T16:08:14.128Z,5.00
2018-05-10T16:10:43.332Z,4.77
2018-05-10T16:13:12.528Z,5.00
2018-05-10T16:15:41.785Z,3.83
2018-05-10T16:18:10.971Z,4.80
2018-05-10T16:20:40.170Z,4.50
2018-05-10T16:23:09.350Z,5.00
2018-05-10T16:25:38.547Z,4.80
2018-05-10T16:28:07.741Z,4.50
2018-05-10T16:30:36.933Z,4.30
2018-05-10T16:33:06.167Z,5.20
2018-05-10T16:35:35.382Z,5.13
2018-05-10T16:38:04.582Z,6.17
2018-05-10T16:40:33.771Z,5.33
2018-05-10T16:43:02.984Z,5.90
2018-05-10T16:45:32.211Z,5.60
2018-05-10T16:48:01.478Z,5.60
2018-05-10T16:50:30.678Z,5.10
2018-05-10T16:52:59.883Z,10.10
2018-05-10T16:55:29.079Z,9.63
2018-05-10T16:57:58.287Z,8.50
2018-05-10T17:00:27.464Z,6.97
2018-05-10T17:02:56.664Z,4.93
2018-05-10T17:05:25.850Z,6.57
2018-05-10T17:07:55.076Z,5.40
2018-05-10T17:10:24.276Z,4.90
2018-05-10T17:12:53.496Z,4.80
2018-05-10T17:18:10.744Z,4.70
2018-05-10T17:20:39.986Z,4.83
2018-05-10T17:28:44.965Z,4.80
2018-05-10T17:31:14.183Z,4.60
2018-05-10T17:33:43.381Z,4.50
2018-05-10T17:39:00.356Z,4.87
2018-05-10T17:41:29.592Z,4.40
2018-05-10T17:46:46.839Z,5.40
2018-05-10T17:52:04.586Z,4.60
2018-05-10T17:54:33.762Z,5.30
2018-05-10T17:57:03.091Z,4.97
2018-05-10T17:59:32.277Z,5.07
2018-05-10T18:04:49.347Z,4.40
2018-05-10T18:07:18.679Z,4.80
2018-05-10T18:09:47.906Z,5.20
2018-05-10T18:12:17.139Z,5.37
2018-05-10T18:14:46.366Z,5.57
2018-05-10T18:20:18.982Z,5.40
2018-05-10T18:22:48.201Z,5.93
2018-05-10T18:25:17.378Z,5.93
2018-05-10T18:27:46.575Z,4.60
2018-05-10T18:30:15.752Z,4.70
2018-05-10T18:32:44.972Z,4.97
2018-05-10T18:35:14.158Z,6.70
2018-05-10T18:37:43.380Z,5.33
2018-05-10T18:40:12.561Z,5.90
2018-05-10T18:42:41.760Z,5.20
2018-05-10T18:45:10.956Z,5.40
2018-05-10T18:47:40.183Z,6.10
2018-05-10T18:50:09.388Z,6.70
2018-05-10T18:52:38.585Z,6.20
2018-05-10T18:55:07.770Z,6.30
2018-05-10T18:57:37.025Z,7.00
2018-05-10T19:00:06.238Z,7.13
2018-05-10T19:05:24.015Z,5.20
2018-05-10T19:07:53.293Z,5.60
2018-05-10T19:10:22.565Z,5.13
2018-05-10T19:12:51.817Z,5.70
2018-05-10T19:15:21.024Z,5.33
2018-05-10T19:17:50.277Z,5.07
2018-05-10T19:20:19.486Z,3.87
2018-05-10T19:22:48.704Z,3.80
2018-05-10T19:25:17.894Z,3.70
2018-05-10T19:27:47.113Z,4.23
2018-05-10T19:30:16.320Z,4.43
2018-05-10T19:32:45.535Z,4.13
2018-05-10T19:35:14.755Z,4.10
2018-05-10T19:37:43.988Z,3.53
2018-05-10T19:40:13.183Z,4.20
2018-05-10T19:42:42.384Z,4.00
2018-05-10T19:45:11.659Z,4.33
2018-05-10T19:47:40.803Z,4.90
2018-05-10T19:53:01.485Z,5.00
2018-05-10T19:55:30.727Z,4.70
2018-05-10T19:57:59.951Z,4.67
2018-05-10T20:03:18.381Z,5.17
2018-05-10T20:05:47.577Z,5.13
2018-05-10T20:11:05.412Z,4.47
2018-05-10T20:13:34.835Z,4.60
2018-05-10T20:16:04.321Z,4.50
2018-05-10T20:18:33.536Z,4.40
2018-05-10T20:23:50.704Z,4.03
2018-05-10T20:26:27.724Z,3.77
2018-05-10T20:28:56.972Z,4.30
2018-05-10T20:34:14.669Z,5.10
2018-05-10T20:42:20.146Z,4.23
2018-05-10T20:44:49.710Z,6.10
2018-05-10T20:47:18.819Z,4.53
2018-05-10T20:49:48.083Z,4.87
2018-05-10T20:52:17.270Z,4.10
2018-05-10T20:54:46.512Z,4.80
2018-05-10T20:57:29.607Z,5.40
2018-05-10T20:59:59.009Z,4.40
2018-05-10T21:02:28.209Z,5.53
2018-05-10T21:04:57.438Z,5.50
2018-05-10T21:07:26.624Z,4.37
2018-05-10T21:09:55.934Z,4.87
2018-05-10T21:12:30.873Z,4.50
2018-05-10T21:15:00.099Z,6.10
2018-05-10T21:17:29.296Z,4.57
2018-05-10T21:19:58.507Z,4.17
2018-05-10T21:22:27.704Z,5.30
2018-05-10T21:24:56.920Z,4.47
2018-05-10T21:27:26.205Z,5.07
2018-05-10T21:29:55.513Z,4.80
2018-05-10T21:32:24.704Z,5.67
2018-05-10T21:34:53.920Z,5.40
2018-05-10T21:37:23.136Z,5.13
2018-05-10T21:39:52.509Z,4.87
2018-05-10T21:42:21.713Z,4.50
2018-05-10T21:44:51.052Z,4.60
2018-05-10T21:47:21.516Z,5.20
2018-05-10T21:49:56.711Z,4.00
2018-05-10T21:52:25.903Z,4.50
